Time;durP1;ratioP1;P1;durP2;ratioP2;P2;SDS_P1;SDS_P2;PMS_P1;PMS_P2;Temp;Humidity;BMP_temperature;BMP_pressure;BME280_temperature;BME280_humidity;BME280_pressure;Samples;Min_cycle;Max_cycle;Signal;HPM_P1;HPM_P2
2024/01/18 00:00:50;;;;;;;0.70;0.70;;;;;;;8.50;100.00;95297.81;5116322;28;20223;-75
2024/01/18 00:03:16;;;;;;;1.27;0.83;;;;;;;8.57;100.00;95300.97;5116284;28;20569;-75
2024/01/18 00:05:42;;;;;;;1.27;0.60;;;;;;;8.49;100.00;95301.53;5116275;28;20207;-75
2024/01/18 00:08:09;;;;;;;1.20;0.73;;;;;;;8.48;100.00;95292.81;5116249;28;20199;-75
2024/01/18 00:10:35;;;;;;;1.27;0.70;;;;;;;8.46;100.00;95299.44;5116157;28;20223;-75
2024/01/18 00:13:01;;;;;;;0.67;0.67;;;;;;;8.29;100.00;95291.81;5116148;28;20588;-75
2024/01/18 00:15:28;;;;;;;1.37;0.90;;;;;;;8.32;100.00;95298.44;5116089;28;20195;-75
2024/01/18 00:17:54;;;;;;;1.00;0.80;;;;;;;8.15;100.00;95313.81;5116112;28;20210;-75
2024/01/18 00:20:22;;;;;;;1.60;0.70;;;;;;;8.13;100.00;95308.00;5116000;28;20223;-75
2024/01/18 00:22:48;;;;;;;2.83;1.00;;;;;;;8.06;100.00;95308.28;5115626;28;20222;-75
2024/01/18 00:25:15;;;;;;;1.53;0.90;;;;;;;8.08;100.00;95313.31;5115499;28;20588;-75
2024/01/18 00:27:41;;;;;;;0.70;0.70;;;;;;;8.11;100.00;95316.19;5115964;28;20233;-75
2024/01/18 00:30:08;;;;;;;1.70;1.00;;;;;;;8.14;100.00;95307.72;5115689;28;20223;-75
2024/01/18 00:32:34;;;;;;;0.73;0.73;;;;;;;8.08;100.00;95310.66;5115812;28;20203;-75
2024/01/18 00:35:00;;;;;;;1.10;0.83;;;;;;;8.12;100.00;95309.06;5115647;28;20290;-75
2024/01/18 00:37:27;;;;;;;0.80;0.80;;;;;;;8.08;100.00;95313.31;5115646;28;20209;-75
2024/01/18 00:39:53;;;;;;;0.90;0.90;;;;;;;8.05;100.00;95317.28;5115260;28;20229;-75
2024/01/18 00:42:19;;;;;;;0.73;0.73;;;;;;;8.06;100.00;95321.50;5115148;28;20206;-75
2024/01/18 00:44:46;;;;;;;0.80;0.80;;;;;;;7.96;100.00;95312.81;5114419;28;20219;-75
2024/01/18 00:47:12;;;;;;;1.53;1.10;;;;;;;7.96;100.00;95320.75;5115136;28;20208;-75
2024/01/18 00:49:39;;;;;;;0.87;0.80;;;;;;;8.08;100.00;95315.94;5115467;28;20578;-75
2024/01/18 00:52:05;;;;;;;0.73;0.73;;;;;;;7.88;100.00;95310.72;5115045;28;20658;-75
2024/01/18 00:54:31;;;;;;;0.80;0.80;;;;;;;8.00;100.00;95316.50;5115327;28;20203;-75
2024/01/18 00:56:58;;;;;;;1.00;0.80;;;;;;;8.10;100.00;95319.13;5115234;28;20205;-75
2024/01/18 00:59:25;;;;;;;0.80;0.80;;;;;;;8.18;100.00;95321.19;5115204;28;20223;-75
2024/01/18 01:01:51;;;;;;;1.80;0.90;;;;;;;8.10;100.00;95324.44;5115156;28;20236;-75
2024/01/18 01:04:17;;;;;;;1.50;0.70;;;;;;;8.08;100.00;95334.47;5115100;28;20226;-75
2024/01/18 01:06:44;;;;;;;0.73;0.73;;;;;;;7.98;100.00;95329.22;5114803;28;20214;-75
2024/01/18 01:09:11;;;;;;;0.77;0.60;;;;;;;8.16;100.00;95331.28;5114654;28;20204;-75
2024/01/18 01:11:37;;;;;;;0.70;0.70;;;;;;;7.95;100.00;95322.59;5114949;28;20203;-75
2024/01/18 01:14:04;;;;;;;0.60;0.60;;;;;;;7.91;100.00;95328.69;5114931;28;20211;-75
2024/01/18 01:16:30;;;;;;;0.80;0.80;;;;;;;7.95;100.00;95335.03;5114909;28;20571;-75
2024/01/18 01:18:56;;;;;;;1.27;0.70;;;;;;;7.83;100.00;95326.59;5114486;28;20670;-75
2024/01/18 01:21:23;;;;;;;0.80;0.70;;;;;;;7.66;100.00;95324.25;5114422;28;20207;-75
2024/01/18 01:23:51;;;;;;;1.77;0.80;;;;;;;7.67;100.00;95320.53;5114441;28;20188;-75
2024/01/18 01:26:18;;;;;;;1.43;0.83;;;;;;;7.58;100.00;95330.06;5114829;28;20204;-75
2024/01/18 01:28:45;;;;;;;0.57;0.57;;;;;;;7.81;100.00;95328.72;5114406;28;20565;-75
2024/01/18 01:31:11;;;;;;;1.00;0.80;;;;;;;7.90;100.00;95327.91;5114303;28;20753;-75
2024/01/18 01:33:37;;;;;;;1.00;0.80;;;;;;;7.74;100.00;95325.56;5114565;28;20207;-75
2024/01/18 01:36:05;;;;;;;0.80;0.80;;;;;;;7.89;100.00;95322.88;5114533;28;20195;-75
2024/01/18 01:38:33;;;;;;;0.80;0.80;;;;;;;7.82;100.00;95331.09;5114575;28;20207;-75
2024/01/18 01:40:59;;;;;;;1.70;0.60;;;;;;;7.74;100.00;95328.22;5114419;28;20227;-75
2024/01/18 01:43:26;;;;;;;0.80;0.73;;;;;;;7.71;100.00;95329.53;5114167;28;20685;-75
2024/01/18 01:45:52;;;;;;;0.50;0.50;;;;;;;7.68;100.00;95323.97;5114039;28;20314;-75
2024/01/18 01:48:19;;;;;;;0.77;0.77;;;;;;;7.66;100.00;95326.09;5114367;28;20207;-75
2024/01/18 01:50:47;;;;;;;2.00;0.80;;;;;;;7.74;100.00;95318.41;5114279;28;20219;-75
2024/01/18 01:53:17;;;;;;;1.47;0.83;;;;;;;7.81;100.00;95326.06;5114343;28;20214;-75
2024/01/18 01:55:45;;;;;;;1.43;0.70;;;;;;;7.61;100.00;95324.22;5113850;28;20656;-75
2024/01/18 01:58:13;;;;;;;1.20;0.70;;;;;;;7.56;100.00;95331.41;5114256;28;20209;-75
2024/01/18 02:00:39;;;;;;;2.00;0.87;;;;;;;7.72;100.00;95327.66;5114161;28;20219;-75
2024/01/18 02:03:05;;;;;;;1.10;0.90;;;;;;;7.53;100.00;95322.16;5114144;28;20213;-75
2024/01/18 02:05:32;;;;;;;1.70;0.70;;;;;;;7.43;100.00;95331.94;5114101;28;20230;-75
2024/01/18 02:07:58;;;;;;;0.70;0.70;;;;;;;7.45;100.00;95322.69;5114178;28;20572;-75
2024/01/18 02:10:25;;;;;;;0.60;0.60;;;;;;;7.51;100.00;95331.41;5113666;28;20730;-75
2024/01/18 02:12:52;;;;;;;0.60;0.60;;;;;;;7.38;100.00;95326.66;5113780;28;20204;-75
2024/01/18 02:15:20;;;;;;;0.60;0.60;;;;;;;7.48;100.00;95326.63;5113711;28;20670;-75
2024/01/18 02:17:46;;;;;;;1.30;0.73;;;;;;;7.37;100.00;95319.78;5113791;28;20294;-75
2024/01/18 02:20:12;;;;;;;0.80;0.80;;;;;;;7.42;100.00;95325.84;5113908;28;20229;-75
2024/01/18 02:22:42;;;;;;;0.90;0.60;;;;;;;7.56;100.00;95329.53;5113595;28;20211;-75
2024/01/18 02:25:24;;;;;;;2.20;1.10;;;;;;;7.56;100.00;95318.94;5113833;28;20226;-75
2024/01/18 02:27:55;;;;;;;0.73;0.60;;;;;;;7.65;100.00;95324.50;5113674;28;20203;-75
2024/01/18 02:30:21;;;;;;;0.73;0.60;;;;;;;7.65;100.00;95327.94;5113969;28;20230;-75
2024/01/18 02:32:47;;;;;;;0.80;0.80;;;;;;;7.57;100.00;95335.63;5113583;28;20214;-75
2024/01/18 02:35:15;;;;;;;0.80;0.73;;;;;;;7.49;100.00;95329.03;5113871;28;20206;-75
2024/01/18 02:37:42;;;;;;;1.43;0.70;;;;;;;7.56;100.00;95334.03;5113850;28;20209;-75
2024/01/18 02:40:09;;;;;;;0.60;0.60;;;;;;;7.50;100.00;95335.06;5113782;28;20230;-75
2024/01/18 02:42:35;;;;;;;1.60;0.60;;;;;;;7.58;100.00;95343.28;5113753;28;20205;-75
2024/01/18 02:45:03;;;;;;;1.87;0.60;;;;;;;7.68;100.00;95340.63;5113662;28;20230;-75
2024/01/18 02:47:30;;;;;;;0.67;0.60;;;;;;;7.71;100.00;95345.41;5113820;28;20749;-75
2024/01/18 02:49:59;;;;;;;2.60;0.90;;;;;;;7.80;100.00;95357.03;5113665;28;20250;-75
2024/01/18 02:52:25;;;;;;;1.70;0.70;;;;;;;7.88;100.00;95353.81;5113339;28;20218;-75
2024/01/18 02:54:52;;;;;;;0.83;0.60;;;;;;;7.87;100.00;95357.53;5113650;28;20226;-75
2024/01/18 02:57:19;;;;;;;0.50;0.50;;;;;;;7.71;100.00;95347.22;5113621;28;20204;-75
2024/01/18 02:59:45;;;;;;;1.70;0.60;;;;;;;7.75;100.00;95340.34;5113505;28;20219;-75
2024/01/18 03:02:18;;;;;;;0.60;0.60;;;;;;;7.62;100.00;95347.00;5113356;28;20214;-75
2024/01/18 03:04:46;;;;;;;0.50;0.50;;;;;;;7.69;100.00;95350.13;5112886;28;20257;-75
2024/01/18 03:07:14;;;;;;;2.03;0.80;;;;;;;7.59;100.00;95344.06;5113138;28;20203;-75
2024/01/18 03:09:42;;;;;;;1.40;0.80;;;;;;;7.65;100.00;95346.44;5116850;28;20227;-75
2024/01/18 03:12:09;;;;;;;0.80;0.73;;;;;;;7.99;100.00;95350.09;5117401;28;20302;-75
2024/01/18 03:14:35;;;;;;;1.00;0.67;;;;;;;7.90;100.00;95350.91;5116992;28;20294;-75
2024/01/18 03:17:01;;;;;;;1.10;0.73;;;;;;;7.84;100.00;95359.91;5117235;28;20214;-75
2024/01/18 03:19:28;;;;;;;1.13;0.70;;;;;;;8.08;100.00;95360.91;5117152;28;20229;-75
2024/01/18 03:21:54;;;;;;;1.13;0.90;;;;;;;8.15;100.00;95366.75;5116926;28;20210;-75
2024/01/18 03:24:20;;;;;;;3.33;3.03;;;;;;;8.15;100.00;95370.16;5117011;28;20199;-75
2024/01/18 03:26:47;;;;;;;4.33;3.40;;;;;;;7.89;100.00;95359.91;5117031;28;20203;-75
2024/01/18 03:29:13;;;;;;;6.10;5.60;;;;;;;7.76;100.00;95353.31;5116845;28;20203;-75
2024/01/18 03:31:39;;;;;;;6.77;6.17;;;;;;;7.40;100.00;95364.16;5116947;28;20203;-74
2024/01/18 03:34:05;;;;;;;6.70;6.10;;;;;;;7.30;100.00;95357.03;5116820;28;20218;-75
2024/01/18 03:36:32;;;;;;;7.13;6.53;;;;;;;7.10;100.00;95357.00;5116742;28;20204;-75
2024/01/18 03:38:58;;;;;;;7.20;6.60;;;;;;;6.85;100.00;95361.44;5116756;28;20210;-75
2024/01/18 03:41:25;;;;;;;8.10;7.40;;;;;;;6.65;100.00;95359.53;5116431;28;20654;-74
2024/01/18 03:43:51;;;;;;;9.07;8.27;;;;;;;6.52;100.00;95364.53;5116603;28;20205;-75
2024/01/18 03:46:18;;;;;;;7.37;6.67;;;;;;;6.52;100.00;95357.38;5116540;28;20239;-75
2024/01/18 03:48:45;;;;;;;6.97;6.37;;;;;;;6.35;100.00;95366.56;5116526;28;20203;-74
2024/01/18 03:51:11;;;;;;;6.23;5.73;;;;;;;6.23;100.00;95373.88;5116511;28;20318;-74
2024/01/18 03:53:43;;;;;;;6.70;6.00;;;;;;;6.31;100.00;95366.28;5116507;28;20211;-74
2024/01/18 03:56:11;;;;;;;6.70;6.10;;;;;;;6.18;100.00;95373.84;5116569;28;20210;-74
2024/01/18 03:58:38;;;;;;;6.57;5.90;;;;;;;6.18;100.00;95377.28;5116475;28;20606;-74
2024/01/18 04:01:04;;;;;;;5.93;5.43;;;;;;;6.16;100.00;95373.31;5116329;28;20227;-75
2024/01/18 04:03:31;;;;;;;6.27;5.67;;;;;;;6.02;100.00;95370.34;5116133;28;20542;-74
2024/01/18 04:05:57;;;;;;;6.63;6.13;;;;;;;6.04;100.00;95375.34;5116147;28;20223;-75
2024/01/18 04:08:24;;;;;;;6.93;6.37;;;;;;;5.94;100.00;95370.03;5116201;28;20203;-75
2024/01/18 04:10:50;;;;;;;6.03;5.53;;;;;;;6.02;100.00;95364.28;5116534;28;20318;-75
2024/01/18 04:13:17;;;;;;;6.60;6.10;;;;;;;5.96;100.00;95375.81;5115799;28;20749;-74
2024/01/18 04:15:44;;;;;;;6.23;5.70;;;;;;;5.95;100.00;95380.31;5117141;28;20252;-74
2024/01/18 04:18:10;;;;;;;5.93;5.43;;;;;;;5.89;100.00;95385.81;5115912;28;20209;-74
2024/01/18 04:20:37;;;;;;;5.87;5.37;;;;;;;5.73;100.00;95376.19;5115803;28;20223;-74
2024/01/18 04:23:03;;;;;;;5.27;4.87;;;;;;;5.67;100.00;95359.56;5115489;28;20241;-74
2024/01/18 04:25:29;;;;;;;4.57;4.20;;;;;;;5.63;100.00;95355.84;5115790;28;20227;-74
2024/01/18 04:27:56;;;;;;;5.67;5.07;;;;;;;5.50;100.00;95363.38;5115737;28;20276;-74
2024/01/18 04:30:23;;;;;;;5.60;5.20;;;;;;;5.53;100.00;95352.34;5115719;28;20227;-77
2024/01/18 04:32:49;;;;;;;5.67;5.27;;;;;;;5.49;100.00;95361.78;5115634;28;20226;-75
2024/01/18 04:35:15;;;;;;;5.40;5.00;;;;;;;5.41;100.00;95368.31;5115683;28;20195;-75
2024/01/18 04:37:42;;;;;;;5.37;4.87;;;;;;;5.38;100.00;95363.53;5115119;28;20554;-75
2024/01/18 04:40:09;;;;;;;5.47;4.97;;;;;;;5.39;100.00;95365.13;5115414;28;20254;-75
2024/01/18 04:42:35;;;;;;;5.57;5.07;;;;;;;5.37;100.00;95361.16;5115355;28;20199;-75
2024/01/18 04:45:02;;;;;;;6.07;5.47;;;;;;;5.34;100.00;95361.66;5114941;28;20697;-75
2024/01/18 04:47:29;;;;;;;6.13;5.63;;;;;;;5.34;100.00;95370.34;5115257;28;20298;-74
2024/01/18 04:49:57;;;;;;;5.93;5.33;;;;;;;5.30;100.00;95368.47;5115226;28;20312;-75
2024/01/18 04:52:23;;;;;;;6.20;5.70;;;;;;;5.27;100.00;95372.41;5115344;28;20226;-75
2024/01/18 04:54:49;;;;;;;6.10;5.60;;;;;;;5.24;100.00;95372.13;5115197;28;20203;-75
2024/01/18 04:57:16;;;;;;;5.73;5.23;;;;;;;5.43;100.00;95370.69;5115140;28;20213;-75
2024/01/18 04:59:42;;;;;;;6.03;5.50;;;;;;;5.35;100.00;95363.25;5114854;28;20230;-75
2024/01/18 05:02:08;;;;;;;6.27;5.77;;;;;;;5.32;100.00;95369.00;5114822;28;20214;-75
2024/01/18 05:04:35;;;;;;;5.90;5.40;;;;;;;5.21;100.00;95367.34;5114440;28;20566;-75
2024/01/18 05:07:01;;;;;;;6.30;5.77;;;;;;;5.18;100.00;95366.00;5114790;28;20575;-75
2024/01/18 05:09:27;;;;;;;6.20;5.70;;;;;;;5.14;100.00;95361.47;5114723;28;20223;-75
2024/01/18 05:11:54;;;;;;;6.57;5.83;;;;;;;5.15;100.00;95361.25;5114775;28;20209;-75
2024/01/18 05:14:21;;;;;;;6.60;6.10;;;;;;;5.03;100.00;95358.00;5114443;28;20209;-75
2024/01/18 05:16:51;;;;;;;6.10;5.60;;;;;;;4.98;100.00;95357.13;5114636;28;20203;-75
2024/01/18 05:19:18;;;;;;;6.93;6.30;;;;;;;4.97;100.00;95366.84;5114336;28;20223;-75
2024/01/18 05:21:44;;;;;;;6.40;5.90;;;;;;;4.96;100.00;95357.38;5113966;28;20217;-75
2024/01/18 05:24:11;;;;;;;6.67;6.07;;;;;;;4.98;100.00;95367.66;5113899;28;20203;-75
2024/01/18 05:26:38;;;;;;;6.83;6.23;;;;;;;5.03;100.00;95365.09;5114008;28;20658;-75
2024/01/18 05:29:04;;;;;;;7.00;6.30;;;;;;;5.02;100.00;95366.13;5114047;28;20199;-75
2024/01/18 05:31:30;;;;;;;6.77;6.20;;;;;;;5.00;100.00;95373.47;5114093;28;20204;-74
2024/01/18 05:33:59;;;;;;;6.63;6.03;;;;;;;5.06;100.00;95364.59;5114019;28;20217;-75
2024/01/18 05:36:26;;;;;;;6.20;5.70;;;;;;;5.16;100.00;95369.94;5114409;28;20210;-74
2024/01/18 05:38:52;;;;;;;6.10;5.60;;;;;;;5.22;100.00;95369.75;5114683;28;20357;-74
2024/01/18 05:41:19;;;;;;;6.23;5.73;;;;;;;5.34;100.00;95372.22;5113709;28;20226;-75
2024/01/18 05:43:45;;;;;;;6.63;6.13;;;;;;;5.22;100.00;95374.19;5113767;28;20207;-74
2024/01/18 05:46:12;;;;;;;6.87;6.27;;;;;;;5.19;100.00;95380.75;5113538;28;20219;-74
2024/01/18 05:48:38;;;;;;;6.97;6.40;;;;;;;5.03;100.00;95394.03;5114025;28;20199;-74
2024/01/18 05:51:05;;;;;;;7.93;6.30;;;;;;;4.80;100.00;95402.22;5113793;28;20231;-74
2024/01/18 05:53:32;;;;;;;7.63;6.37;;;;;;;4.82;100.00;95410.66;5114107;27;20302;-74
2024/01/18 05:55:59;;;;;;;6.77;6.17;;;;;;;4.67;100.00;95419.19;5113824;28;20200;-74
2024/01/18 05:58:26;;;;;;;5.90;5.23;;;;;;;4.64;100.00;95429.38;5113868;28;20298;-74
2024/01/18 06:00:53;;;;;;;5.73;5.10;;;;;;;4.42;100.00;95426.75;5113646;28;20227;-74
2024/01/18 06:03:19;;;;;;;5.67;4.37;;;;;;;4.06;100.00;95422.06;5113736;28;20206;-74
2024/01/18 06:05:45;;;;;;;4.27;3.97;;;;;;;3.94;100.00;95421.38;5113302;28;20619;-74
2024/01/18 06:08:12;;;;;;;4.83;2.80;;;;;;;3.81;100.00;95421.72;5113738;28;20213;-74
2024/01/18 06:10:38;;;;;;;3.43;2.67;;;;;;;3.44;100.00;95425.06;5113850;28;20219;-74
2024/01/18 06:13:05;;;;;;;2.93;2.70;;;;;;;3.42;100.00;95414.00;5113804;28;20203;-74
2024/01/18 06:15:31;;;;;;;2.97;2.50;;;;;;;3.31;100.00;95413.06;5119241;28;20285;-79
2024/01/18 06:18:03;;;;;;;2.60;2.40;;;;;;;3.27;100.00;95416.38;5116525;28;20207;-79
2024/01/18 06:20:29;;;;;;;1.73;1.63;;;;;;;3.12;100.00;95426.63;5115916;28;20227;-79
2024/01/18 06:22:57;;;;;;;1.73;1.63;;;;;;;3.00;100.00;95431.94;5115863;28;20217;-79
2024/01/18 06:25:24;;;;;;;2.23;2.13;;;;;;;2.86;100.00;95430.63;5115978;28;20269;-79
2024/01/18 06:27:51;;;;;;;1.90;1.80;;;;;;;2.76;100.00;95425.19;5115866;28;20209;-78
2024/01/18 06:30:18;;;;;;;2.00;1.90;;;;;;;2.76;100.00;95421.78;5115544;28;20291;-79
2024/01/18 06:32:45;;;;;;;2.20;2.00;;;;;;;2.80;100.00;95428.94;5115529;28;20199;-79
2024/01/18 06:35:11;;;;;;;1.87;1.70;;;;;;;2.74;100.00;95421.19;5116179;28;20298;-79
2024/01/18 06:37:39;;;;;;;1.80;1.70;;;;;;;2.68;100.00;95417.69;5115830;28;20225;-79
2024/01/18 06:40:06;;;;;;;2.70;1.60;;;;;;;2.57;100.00;95425.59;5115361;28;20250;-78
2024/01/18 06:42:32;;;;;;;2.03;1.90;;;;;;;2.57;100.00;95423.75;5116378;28;20203;-74
2024/01/18 06:44:59;;;;;;;2.10;2.00;;;;;;;2.58;100.00;95425.34;5117033;28;20217;-74
2024/01/18 06:47:26;;;;;;;1.90;1.70;;;;;;;2.49;100.00;95428.59;5117050;28;20693;-74
2024/01/18 06:49:53;;;;;;;1.87;1.70;;;;;;;2.51;100.00;95426.53;5117150;28;20318;-74
2024/01/18 06:52:19;;;;;;;1.63;1.53;;;;;;;2.54;100.00;95421.63;5116960;28;20573;-74
2024/01/18 06:54:46;;;;;;;2.37;2.10;;;;;;;2.57;100.00;95428.22;5117013;28;20662;-74
2024/01/18 06:57:12;;;;;;;2.43;2.23;;;;;;;2.53;100.00;95414.00;5116919;28;20569;-74
2024/01/18 06:59:48;;;;;;;2.50;2.30;;;;;;;2.55;100.00;95411.91;5116968;28;20223;-74
2024/01/18 07:02:15;;;;;;;2.20;2.03;;;;;;;2.59;100.00;95413.03;5116929;28;20194;-74
2024/01/18 07:04:42;;;;;;;2.33;2.17;;;;;;;2.66;100.00;95408.47;5117072;27;20206;-74
2024/01/18 07:07:09;;;;;;;2.30;2.20;;;;;;;2.71;100.00;95416.44;5116917;28;20705;-74
2024/01/18 07:09:35;;;;;;;2.50;2.30;;;;;;;2.68;100.00;95422.13;5117501;28;20713;-74
2024/01/18 07:12:01;;;;;;;2.90;2.50;;;;;;;2.66;100.00;95409.25;5116522;28;20663;-74
2024/01/18 07:14:29;;;;;;;2.90;2.00;;;;;;;2.74;100.00;95408.88;5116507;28;20512;-74
2024/01/18 07:16:56;;;;;;;2.23;2.10;;;;;;;2.71;100.00;95411.19;5116636;28;20569;-74
2024/01/18 07:19:22;;;;;;;2.50;2.30;;;;;;;2.71;100.00;95406.72;5116590;28;20230;-74
2024/01/18 07:21:48;;;;;;;2.27;2.07;;;;;;;2.63;100.00;95409.75;5116370;28;20637;-74
2024/01/18 07:24:15;;;;;;;2.03;1.93;;;;;;;2.81;100.00;95419.25;5116203;28;20198;-74
2024/01/18 07:26:41;;;;;;;2.43;2.03;;;;;;;2.84;100.00;95410.91;5116354;28;20223;-74
2024/01/18 07:29:07;;;;;;;2.20;2.00;;;;;;;2.83;100.00;95409.28;5116848;28;20203;-74
2024/01/18 07:31:34;;;;;;;3.00;2.50;;;;;;;2.81;100.00;95417.44;5116605;28;20207;-75
2024/01/18 07:34:00;;;;;;;2.60;2.30;;;;;;;2.90;100.00;95409.97;5116102;28;20552;-74
2024/01/18 07:36:27;;;;;;;2.00;1.90;;;;;;;2.71;100.00;95404.09;5116582;28;20206;-75
2024/01/18 07:38:53;;;;;;;3.50;2.60;;;;;;;2.63;100.00;95403.69;5116107;28;20294;-74
2024/01/18 07:41:19;;;;;;;2.50;2.30;;;;;;;2.71;100.00;95400.69;5115982;28;20406;-74
2024/01/18 07:43:46;;;;;;;2.63;2.43;;;;;;;2.65;100.00;95401.63;5116481;28;20242;-74
2024/01/18 07:46:12;;;;;;;2.00;1.90;;;;;;;2.64;100.00;95406.09;5116232;28;20223;-74
2024/01/18 07:48:39;;;;;;;3.07;2.80;;;;;;;2.61;100.00;95400.50;5116072;28;20203;-74
2024/01/18 07:51:05;;;;;;;2.90;2.70;;;;;;;2.64;100.00;95406.09;5116130;28;20731;-74
2024/01/18 07:53:32;;;;;;;2.53;2.33;;;;;;;2.65;100.00;95405.03;5115701;28;20546;-74
2024/01/18 07:55:58;;;;;;;3.30;2.67;;;;;;;2.64;100.00;95406.09;5116261;28;20206;-74
2024/01/18 07:58:24;;;;;;;3.03;2.63;;;;;;;2.57;100.00;95405.41;5115666;28;20211;-74
2024/01/18 08:00:52;;;;;;;2.70;2.50;;;;;;;2.73;100.00;95406.50;5115639;28;20227;-74
2024/01/18 08:03:18;;;;;;;3.93;2.83;;;;;;;2.65;100.00;95405.03;5116025;28;20203;-74
2024/01/18 08:05:44;;;;;;;2.60;2.40;;;;;;;2.62;100.00;95415.22;5115665;28;20227;-74
2024/01/18 08:08:11;;;;;;;2.53;2.33;;;;;;;2.62;100.00;95423.09;5116032;28;20214;-74
2024/01/18 08:10:37;;;;;;;2.70;2.50;;;;;;;2.61;100.00;95424.09;5115838;28;20223;-74
2024/01/18 08:13:04;;;;;;;2.80;2.60;;;;;;;2.59;100.00;95426.16;5115967;28;20207;-75
2024/01/18 08:15:30;;;;;;;2.97;2.77;;;;;;;2.62;100.00;95426.47;5117058;28;20210;-74
2024/01/18 08:17:56;;;;;;;4.07;3.40;;;;;;;2.56;100.00;95434.47;5116357;28;20203;-74
2024/01/18 08:20:23;;;;;;;3.53;3.23;;;;;;;2.60;100.00;95440.84;5115868;28;20254;-75
2024/01/18 08:22:50;;;;;;;4.23;3.80;;;;;;;2.40;100.00;95440.47;5115230;28;20233;-75
2024/01/18 08:25:17;;;;;;;3.60;3.03;;;;;;;2.40;100.00;95443.09;5115678;28;20558;-74
2024/01/18 08:27:44;;;;;;;3.97;3.67;;;;;;;2.21;100.00;95446.88;5115424;28;20259;-75
2024/01/18 08:30:11;;;;;;;4.23;3.90;;;;;;;2.27;100.00;95461.69;5115570;28;20229;-74
2024/01/18 08:32:37;;;;;;;3.67;3.37;;;;;;;2.11;100.00;95444.03;5115595;28;20209;-74
2024/01/18 08:35:06;;;;;;;3.90;3.50;;;;;;;2.25;100.00;95458.50;5115278;28;20213;-74
2024/01/18 08:37:35;;;;;;;3.33;3.03;;;;;;;2.02;100.00;95458.50;5115317;28;20206;-75
2024/01/18 08:40:02;;;;;;;3.73;3.13;;;;;;;1.91;100.00;95467.97;5115413;28;20583;-75
2024/01/18 08:42:28;;;;;;;3.50;3.20;;;;;;;1.94;100.00;95471.97;5115069;28;20226;-74
2024/01/18 08:44:54;;;;;;;2.63;2.43;;;;;;;1.79;100.00;95484.69;5115079;28;20207;-74
2024/01/18 08:47:22;;;;;;;3.27;2.97;;;;;;;1.82;100.00;95473.78;5115014;28;20313;-75
2024/01/18 08:49:48;;;;;;;3.53;3.20;;;;;;;1.71;100.00;95482.44;5114752;28;20237;-75
2024/01/18 08:52:15;;;;;;;3.53;2.87;;;;;;;1.78;100.00;95486.53;5115314;28;20213;-75
2024/01/18 08:54:42;;;;;;;3.27;3.07;;;;;;;1.74;100.00;95484.56;5115148;28;20200;-75
2024/01/18 08:57:09;;;;;;;4.83;3.13;;;;;;;1.89;100.00;95485.72;5114926;28;20680;-74
2024/01/18 08:59:35;;;;;;;3.70;3.40;;;;;;;1.73;100.00;95496.88;5114966;28;20227;-74
2024/01/18 09:02:02;;;;;;;3.17;2.87;;;;;;;1.79;100.00;95492.53;5115057;28;20204;-74
2024/01/18 09:04:28;;;;;;;2.80;2.60;;;;;;;1.78;100.00;95502.25;5114217;28;20199;-74
2024/01/18 09:06:55;;;;;;;5.33;3.10;;;;;;;1.71;100.00;95526.94;5115021;28;20230;-75
2024/01/18 09:09:21;;;;;;;4.53;3.03;;;;;;;1.72;100.00;95529.31;5115086;28;20254;-75
2024/01/18 09:11:47;;;;;;;3.13;2.80;;;;;;;1.62;100.00;95528.28;5114940;28;20293;-75
2024/01/18 09:14:14;;;;;;;3.37;2.90;;;;;;;1.62;100.00;95530.91;5114322;28;20582;-75
2024/01/18 09:16:40;;;;;;;3.40;3.00;;;;;;;1.50;100.00;95533.50;5114747;28;20223;-75
2024/01/18 09:19:06;;;;;;;3.13;2.93;;;;;;;1.48;100.00;95550.44;5116009;28;20199;-74
2024/01/18 09:21:33;;;;;;;3.03;2.73;;;;;;;1.45;100.00;95550.88;5116049;28;20243;-75
2024/01/18 09:23:59;;;;;;;3.20;2.90;;;;;;;1.60;100.00;95546.03;5114723;28;20199;-75
2024/01/18 09:26:25;;;;;;;3.73;2.80;;;;;;;1.56;100.00;95547.50;5113570;28;20231;-74
2024/01/18 09:28:52;;;;;;;2.80;2.60;;;;;;;1.52;100.00;95541.09;5114555;28;20212;-75
2024/01/18 09:31:18;;;;;;;3.13;2.73;;;;;;;1.53;100.00;95555.81;5114101;28;20785;-75
2024/01/18 09:33:45;;;;;;;2.50;2.30;;;;;;;1.41;100.00;95570.66;5114158;28;20218;-74
2024/01/18 09:36:11;;;;;;;2.10;2.00;;;;;;;1.34;100.00;95583.84;5114251;28;20203;-74
2024/01/18 09:38:37;;;;;;;2.57;2.37;;;;;;;1.41;100.00;95583.75;5114221;28;20209;-74
2024/01/18 09:41:07;;;;;;;2.73;2.10;;;;;;;1.36;100.00;95567.94;5114020;28;20223;-75
2024/01/18 09:43:37;;;;;;;2.20;2.00;;;;;;;1.34;100.00;95585.66;5114357;28;20298;-75
2024/01/18 09:46:08;;;;;;;2.40;2.20;;;;;;;1.30;100.00;95595.00;5114147;28;20570;-74
2024/01/18 09:48:35;;;;;;;2.00;1.90;;;;;;;1.22;100.00;95603.13;5113895;28;20654;-74
2024/01/18 09:51:03;;;;;;;1.77;1.67;;;;;;;1.29;100.00;95595.97;5113426;28;20714;-74
2024/01/18 09:53:30;;;;;;;1.87;1.77;;;;;;;1.29;100.00;95602.03;5113551;28;20222;-74
2024/01/18 09:56:04;;;;;;;2.20;1.80;;;;;;;1.26;100.00;95622.63;5114041;28;20203;-74
2024/01/18 09:58:31;;;;;;;2.30;1.73;;;;;;;1.26;100.00;95620.78;5113935;28;20190;-74
2024/01/18 10:00:59;;;;;;;2.07;1.80;;;;;;;1.21;100.00;95627.72;5113611;28;20701;-74
2024/01/18 10:03:25;;;;;;;1.97;1.77;;;;;;;1.21;100.00;95625.88;5113933;28;20286;-74
2024/01/18 10:05:52;;;;;;;2.17;2.00;;;;;;;1.24;100.00;95638.53;5113651;28;20677;-74
2024/01/18 10:08:18;;;;;;;2.03;1.93;;;;;;;1.29;100.00;95653.56;5113505;28;20227;-75
2024/01/18 10:10:45;;;;;;;2.63;1.87;;;;;;;1.23;100.00;95670.94;5114370;28;20227;-75
2024/01/18 10:13:14;;;;;;;2.90;2.57;;;;;;;1.29;100.00;95684.97;5114976;28;20203;-75
2024/01/18 10:15:41;;;;;;;2.30;1.80;;;;;;;1.34;100.00;95679.88;5113781;28;20247;-74
2024/01/18 10:18:09;;;;;;;3.37;2.27;;;;;;;1.22;100.00;95682.41;5114330;28;20230;-74
2024/01/18 10:20:36;;;;;;;2.17;1.97;;;;;;;1.15;100.00;95679.09;5114279;28;20311;-74
2024/01/18 10:23:03;;;;;;;1.70;1.60;;;;;;;1.12;100.00;95702.28;5115178;28;20684;-74
2024/01/18 10:25:32;;;;;;;2.20;1.90;;;;;;;1.11;100.00;95709.31;5113350;28;20206;-74
2024/01/18 10:27:59;;;;;;;1.70;1.57;;;;;;;0.99;100.00;95729.34;5113403;28;20627;-74
2024/01/18 10:30:25;;;;;;;2.20;2.00;;;;;;;1.06;100.00;95719.63;5113576;28;20219;-74
2024/01/18 10:32:51;;;;;;;2.70;2.23;;;;;;;1.11;100.00;95711.94;5113286;28;20630;-75
2024/01/18 10:35:19;;;;;;;1.80;1.70;;;;;;;1.03;100.00;95724.50;5113216;28;20616;-74
2024/01/18 10:37:46;;;;;;;2.47;2.27;;;;;;;1.07;100.00;95716.00;5113566;28;20206;-74
2024/01/18 10:40:20;;;;;;;2.23;2.03;;;;;;;1.07;100.00;95713.38;5113530;28;20249;-75
2024/01/18 10:42:47;;;;;;;1.80;1.70;;;;;;;1.13;100.00;95714.34;5113800;28;20193;-74
2024/01/18 10:45:14;;;;;;;1.67;1.57;;;;;;;1.04;100.00;95729.50;5113480;28;20202;-74
2024/01/18 10:47:40;;;;;;;1.73;1.60;;;;;;;1.23;100.00;95738.19;5113395;28;20219;-73
2024/01/18 10:50:08;;;;;;;2.17;1.97;;;;;;;1.25;100.00;95743.97;5113149;28;20706;-73
2024/01/18 10:52:37;;;;;;;2.30;2.10;;;;;;;1.25;100.00;95750.03;5113523;28;20213;-73
2024/01/18 10:55:08;;;;;;;2.33;2.13;;;;;;;1.31;100.00;95758.84;5113297;28;20273;-73
2024/01/18 10:57:35;;;;;;;4.40;2.40;;;;;;;1.26;100.00;95753.44;5113487;28;20184;-73
2024/01/18 11:00:01;;;;;;;2.80;2.50;;;;;;;1.27;100.00;95755.84;5112875;28;20266;-73
2024/01/18 11:02:28;;;;;;;4.33;2.80;;;;;;;1.32;100.00;95770.91;5113206;28;20242;-73
2024/01/18 11:04:56;;;;;;;2.40;2.20;;;;;;;1.41;100.00;95775.63;5113123;28;20744;-73
2024/01/18 11:07:23;;;;;;;3.57;3.03;;;;;;;1.48;100.00;95780.81;5111951;28;20219;-73
2024/01/18 11:09:50;;;;;;;3.33;3.03;;;;;;;1.48;100.00;95778.97;5113367;28;20262;-73
2024/01/18 11:12:17;;;;;;;4.00;3.20;;;;;;;1.50;100.00;95789.22;5113298;28;20204;-73
2024/01/18 11:14:44;;;;;;;4.73;2.90;;;;;;;1.45;100.00;95796.94;5113294;28;20199;-73
2024/01/18 11:17:17;;;;;;;3.47;2.33;;;;;;;1.32;100.00;95794.44;5113292;28;20286;-73
2024/01/18 11:19:45;;;;;;;2.97;2.60;;;;;;;1.23;100.00;95817.50;5113464;28;20227;-73
2024/01/18 11:22:31;;;;;;;2.70;2.50;;;;;;;1.25;100.00;95809.41;5112605;28;20215;-73
2024/01/18 11:25:05;;;;;;;2.80;2.60;;;;;;;1.12;100.00;95818.16;5113078;28;20650;-74
2024/01/18 11:27:41;;;;;;;3.03;2.73;;;;;;;0.96;100.00;95820.53;5114693;28;20262;-74
2024/01/18 11:30:11;;;;;;;2.30;2.10;;;;;;;1.04;100.00;95830.72;5116652;27;20237;-74
2024/01/18 11:32:39;;;;;;;2.77;2.57;;;;;;;0.97;100.00;95836.00;5117149;28;20203;-74